Bookmark and Share
Track history (hours):
 

Capt. John Reynolds

More information available from US FCC via Universal Licensing System and Coast Guard Vessel Documentation Center.

Last reported at 2014-Apr-21 12:33 UTC. Time now 2014-Apr-23 07:07 UTC.
Position N 29°56' W 090°22'.

Length 47 m; draft 3.3 m.

Type: Towing. MMSI: 367168950.

NotesDate/timePositionNaut miles runAvg speedWind from/ knotsBaromVisibWave heightAir tempDewpointWater temp
2014-Apr-21 12:33N 29°56' W 090°22'7 6.7
2014-Apr-21 11:33N 30°01' W 090°28'7 7.2
2014-Apr-21 10:33N 30°02' W 090°37'8 7.7
2014-Apr-21 09:33N 30°01' W 090°45'4 0.6
2014-Apr-21 03:32N 29°59' W 090°49'0 0.0
2014-Apr-21 02:29N 29°59' W 090°49'0 0.2
2014-Apr-21 00:33N 29°59' W 090°49'3 2.5
2014-Apr-20 23:09N 30°01' W 090°46'2 3.2
2014-Apr-20 22:32N 30°01' W 090°44'3 3.2
2014-Apr-20 21:33N 30°03' W 090°40'3 3.4
2014-Apr-20 20:33N 30°02' W 090°37'3 3.3
2014-Apr-20 19:34N 30°03' W 090°33'3 3.1
2014-Apr-20 18:33N 30°03' W 090°29'0 0.3
2014-Apr-20 17:30N 30°03' W 090°29'0 0.0
2014-Apr-20 16:33N 30°03' W 090°29'0 0.1
2014-Apr-20 15:33N 30°03' W 090°29'0 0.0
2014-Apr-20 14:30N 30°03' W 090°29'0 0.1
2014-Apr-20 13:27N 30°03' W 090°29'2 2.7
2014-Apr-20 12:33N 30°01' W 090°28'4 4.0
2014-Apr-20 11:33N 29°59' W 090°24'3 2.5
2014-Apr-20 10:27N 29°57' W 090°23'3 3.0
2014-Apr-20 09:33N 29°56' W 090°20'7 3.1
2014-Apr-20 07:11N 29°56' W 090°11'16 0.4
2014-Apr-18 16:32N 30°01' W 090°28'19 3.7
2014-Apr-18 11:32N 30°01' W 090°50'0 0.0
2014-Apr-18 07:04N 30°01' W 090°50'0 0.0
2014-Apr-18 06:28N 30°01' W 090°50'1 1.1
2014-Apr-18 05:29N 30°00' W 090°50'3 3.4
2014-Apr-18 04:33N 30°01' W 090°46'5 4.5
2014-Apr-18 03:33N 30°02' W 090°41'4 4.1
2014-Apr-18 02:33N 30°02' W 090°37'4 4.4
2014-Apr-18 01:33N 30°03' W 090°32'2 2.3
2014-Apr-18 00:33N 30°03' W 090°29'0 0.0
2014-Apr-17 23:33N 30°03' W 090°29'0 0.0
2014-Apr-17 22:30N 30°03' W 090°29'0 0.0
2014-Apr-17 11:33N 30°03' W 090°29'0 0.0
2014-Apr-17 10:33N 30°03' W 090°29'0 0.0
2014-Apr-17 09:33N 30°03' W 090°29'0 0.0
2014-Apr-17 08:33N 30°03' W 090°29'0 0.0
2014-Apr-17 07:33N 30°03' W 090°29'0 0.0
2014-Apr-17 06:33N 30°03' W 090°29'0 0.0
2014-Apr-17 05:33N 30°03' W 090°29'0 0.0
2014-Apr-17 04:33N 30°03' W 090°29'5 4.5
2014-Apr-17 03:33N 29°60' W 090°26'4 3.2
2014-Apr-17 02:20N 29°57' W 090°23'3 3.7
2014-Apr-17 01:30N 29°56' W 090°19'3 0.1
2014-Apr-15 03:32N 29°56' W 090°22'8 8.7
2014-Apr-15 02:33N 30°03' W 090°29'10 9.5
2014-Apr-15 01:33N 30°03' W 090°40'8 7.2
2014-Apr-15 00:30N 30°00' W 090°48'8 0.6
2014-Apr-14 10:33N 30°03' W 090°39'5 4.9
2014-Apr-14 09:34N 30°03' W 090°34'0 0.0
2014-Apr-14 08:34N 30°03' W 090°34'4 3.9
2014-Apr-14 07:33N 30°03' W 090°29'1 1.4
2014-Apr-14 06:33N 30°03' W 090°31'0 0.1
2014-Apr-14 05:31N 30°03' W 090°31'15 1.8
2014-Apr-13 21:10N 29°60' W 090°48'0 0.4
2014-Apr-13 20:25N 29°60' W 090°48'  

Dump ship's entire track history

sailing weather and tide predictions

Capt. John Reynolds — WDD6151 — position and weather